Werte bis 5 Uhr SommerzeitDiagramme Niedergude: Tagesdaten MonatsdatenCSV-Datei: Niedergude20.csv

Wetterdaten 2020 Station: Niedergude
Temperaturen in °C relative Nieder- Global- Wind Wind Wind- Sonnen-
Datum Boden Boden Luft Luft Luft Luft Feuchte schlag strahlung max richtung schein
20 cm 5 cm 20 cm 2 m 2 m max 2 m min % mm W/m2*d m/s m/s ° h

26.03.2020 2,9 3,1 -0,5 0,6 2,7 -0,4 39 0,0 0 2,7 6,3 --- ---
25.03.2020 2,8 3,4 2,8 3,2 9,5 -4,2 33 0,0 4664 2,6 12,7 --- 9,9
24.03.2020 3,0 3,6 2,1 2,5 8,5 -5,1 34 0,0 4508 2,2 8,8 --- 9,9
23.03.2020 3,4 3,8 1,7 1,9 6,8 -2,7 32 0,0 4434 2,7 9,3 --- 9,9
22.03.2020 4,1 4,5 1,9 2,0 6,2 -1,6 44 0,0 4414 3,9 12,8 --- 10,0
21.03.2020 5,1 6,0 4,2 4,4 6,9 2,2 57 0,0 1956 4,7 12,8 --- 6,9
20.03.2020 5,7 7,4 8,1 8,6 10,9 4,4 80 0,0 718 2,7 8,2 --- 1,2
19.03.2020 5,2 6,5 5,6 6,5 11,2 5,0 88 0,0 45 0,4 2,0 --- ---
18.03.2020 4,8 6,5 8,7 8,7 16,9 0,8 68 0,0 3502 1,4 7,3 --- 8,4
17.03.2020 4,7 6,6 9,6 9,4 15,9 5,2 69 0,0 2809 0,9 5,0 --- 7,8
16.03.2020 4,1 5,6 8,5 8,8 17,4 0,4 59 0,0 3177 0,9 5,1 --- 8,5
15.03.2020 4,0 5,3 7,4 8,1 13,7 3,1 50 0,0 3348 1,2 8,1 --- 9,1
14.03.2020 4,0 5,2 4,7 5,2 10,1 -0,3 71 0,0 2263 0,8 5,1 --- 7,6
13.03.2020 4,5 5,6 5,7 6,1 10,0 2,8 60 0,3 1644 3,3 13,0 --- 4,6
12.03.2020 4,9 7,0 10,2 10,5 12,6 6,5 54 1,5 2512 3,4 12,1 --- 6,8
11.03.2020 4,0 6,1 10,1 10,5 13,7 7,1 87 19,1 1159 1,7 16,1 --- 3,5
10.03.2020 3,4 4,5 5,9 6,8 12,3 3,0 87 5,1 200 1,8 8,5 --- ---
09.03.2020 3,5 5,1 6,8 6,8 10,8 1,4 75 0,3 2071 1,6 10,0 --- 5,8
08.03.2020 2,9 4,1 6,1 6,5 10,6 -0,4 66 0,0 1370 1,3 9,1 --- 4,3
07.03.2020 3,0 4,0 3,3 3,9 7,1 -0,1 77 2,9 764 1,6 7,2 --- 2,3
06.03.2020 3,1 4,3 4,2 4,9 6,7 3,0 89 11,6 501 1,7 7,9 --- 0,8
05.03.2020 2,7 3,6 3,7 4,3 9,0 0,1 79 5,0 1313 1,3 6,6 --- 4,8
04.03.2020 3,0 3,4 1,2 1,9 8,2 -2,3 85 0,5 766 0,4 4,1 --- 2,1
03.03.2020 3,7 4,9 3,9 4,3 8,0 -0,7 76 5,0 1385 1,4 7,3 --- 5,0
02.03.2020 3,4 4,7 6,0 6,4 11,3 1,7 72 5,1 2174 1,1 5,7 --- 6,5
01.03.2020 3,2 4,4 6,2 6,8 10,0 4,7 61 0,6 1539 2,5 14,4 --- 4,8
29.02.2020 2,8 4,1 6,6 7,2 13,5 1,8 75 0,7 1572 1,9 14,3 --- 5,8
28.02.2020 2,6 3,3 2,4 2,7 5,3 0,8 76 2,6 1141 2,1 7,3 --- 4,6
27.02.2020 2,9 3,5 1,7 2,3 4,5 0,9 82 1,2 512 1,4 5,6 --- 0,7
26.02.2020 3,5 4,1 1,9 2,6 3,7 1,3 84 4,2 443 1,9 11,3 --- ---
25.02.2020 3,8 5,2 7,6 8,0 10,2 2,9 67 5,4 1568 3,1 14,1 --- 5,7
24.02.2020 3,5 4,5 4,8 5,5 10,3 2,3 73 0,3 537 1,9 13,1 --- 0,5
23.02.2020 3,4 4,9 7,9 9,1 11,7 6,2 81 5,4 169 4,1 14,8 --- ---
22.02.2020 3,0 3,9 6,5 7,3 10,1 3,4 58 0,2 829 3,1 11,9 --- 2,7
21.02.2020 3,1 4,1 5,1 5,4 7,0 3,6 62 1,6 1442 3,4 14,1 --- 5,8
20.02.2020 3,0 3,8 4,6 5,3 8,0 0,6 79 1,3 682 1,7 9,8 --- 2,0
19.02.2020 3,3 4,2 4,3 4,9 7,0 2,3 67 2,1 1043 2,6 10,5 --- 3,8
18.02.2020 3,4 4,5 5,8 6,3 8,6 5,0 67 0,7 1487 3,4 14,4 --- 4,9
17.02.2020 3,6 5,0 7,1 8,0 15,6 5,0 68 2,2 777 2,5 13,4 --- 3,0
16.02.2020 2,8 4,3 11,5 12,8 16,3 7,9 48 0,4 912 3,2 20,2 --- 2,4
15.02.2020 2,3 3,3 6,1 6,8 11,2 3,8 71 0,0 1585 1,5 7,8 --- 6,1
14.02.2020 1,9 2,8 4,5 5,1 7,2 2,9 81 0,8 788 1,3 9,1 --- 3,2
13.02.2020 1,8 2,1 1,5 2,6 5,2 -0,2 85 1,9 278 1,1 7,1 --- ---
12.02.2020 2,3 2,7 2,6 3,3 6,1 1,1 65 0,3 1151 3,4 11,6 --- 3,9
11.02.2020 2,7 3,2 3,2 3,8 6,5 1,4 66 1,6 1254 4,8 16,2 --- 4,0
10.02.2020 3,0 4,2 6,2 7,2 12,2 2,1 70 14,0 958 5,0 21,4 --- 3,1
09.02.2020 2,3 3,3 7,3 8,4 12,4 3,2 62 0,2 701 2,8 18,6 --- 2,5
08.02.2020 2,2 2,4 2,1 3,1 7,6 -2,4 72 0,0 1014 0,6 2,6 --- 4,6
07.02.2020 2,5 3,2 2,5 3,0 7,5 -0,9 76 0,0 1296 0,7 5,2 --- 5,4
06.02.2020 2,5 2,7 1,2 1,7 4,3 -1,4 82 0,0 354 0,5 2,6 --- ---
05.02.2020 3,2 3,5 2,0 2,4 6,4 -2,2 69 0,1 1437 2,0 8,8 --- 5,1
04.02.2020 3,8 4,5 2,9 3,4 6,4 1,1 88 17,2 810 2,0 8,3 --- 2,4
03.02.2020 4,0 5,3 8,6 9,4 10,9 6,5 67 0,8 798 2,6 10,3 --- 2,6
02.02.2020 3,8 5,0 7,5 8,4 11,7 5,9 71 4,3 212 2,4 13,3 --- ---
01.02.2020 3,6 5,2 9,8 10,9 11,8 8,9 78 7,0 63 2,4 11,1 --- ---
31.01.2020 2,6 4,1 10,8 11,6 14,1 8,0 70 0,2 835 3,4 11,9 --- 3,4
30.01.2020 1,9 2,6 5,0 5,8 7,9 2,5 72 0,0 585 2,1 9,7 --- 2,0
29.01.2020 1,9 2,4 2,4 3,2 4,6 2,2 74 0,0 394 2,5 9,6 --- 0,5
28.01.2020 2,1 2,9 3,6 4,5 6,6 2,2 77 5,0 448 2,5 14,5 --- 1,4
27.01.2020 1,7 2,4 4,1 5,0 6,9 2,5 91 1,8 154 0,8 5,3 --- ---
26.01.2020 1,3 1,8 1,4 1,6 3,6 -0,4 92 0,0 440 0,4 2,1 --- ---
25.01.2020 1,0 1,3 -0,7 -0,5 0,8 -1,7 88 0,0 364 0,6 2,5 --- ---
24.01.2020 1,2 1,1 -1,9 -1,4 0,2 -4,5 89 0,0 179 0,9 5,8 --- ---
23.01.2020 1,3 1,5 -0,2 0,4 2,5 -3,2 88 0,0 386 0,6 3,3 --- ---
22.01.2020 1,3 1,0 -2,9 -2,6 0,8 -6,4 92 0,2 271 0,3 1,8 --- ---
21.01.2020 2,1 1,7 -3,6 -2,9 3,8 -6,5 91 0,1 845 0,3 1,6 --- 2,3
20.01.2020 2,6 3,0 0,8 1,4 5,6 -2,8 83 0,0 642 0,4 3,0 --- 1,4
19.01.2020 2,8 3,1 1,5 2,2 3,6 -0,1 90 1,5 348 0,6 3,9 --- ---
18.01.2020 3,1 3,5 2,9 4,0 7,0 0,4 76 0,0 398 1,5 7,7 --- 0,3
17.01.2020 3,2 3,5 4,1 5,6 10,3 1,0 82 0,2 581 0,8 4,8 --- 1,5
16.01.2020 3,6 4,4 5,7 7,2 13,0 2,7 81 0,4 740 0,7 6,1 --- 2,8
15.01.2020 3,7 4,2 11,0 11,3 13,9 9,7 47 0,0 919 0,9 8,1 --- 4,2
14.01.2020 3,1 3,3 9,4 9,3 11,2 5,5 55 0,0 612 0,8 9,5 --- 0,1
13.01.2020 2,7 2,9 6,3 5,9 6,9 5,0 75 0,0 361 0,1 4,2 --- 0,4
12.01.2020 2,7 2,1 2,8 2,7 5,6 -0,4 76 0,0 168 0,9 8,9 --- 1,0
11.01.2020 3,8 3,8 4,3 4,3 5,3 1,2 68 0,0 933 0,2 4,3 --- 3,2
10.01.2020 4,2 5,6 7,7 8,2 9,6 5,1 77 1,1 346 0,4 5,9 --- ---
09.01.2020 3,2 4,7 8,0 8,6 10,6 6,0 88 15,2 109 0,0 1,9 --- ---
08.01.2020 2,1 3,1 4,8 5,5 6,2 4,1 85 1,8 95 0,7 4,4 --- ---
07.01.2020 1,8 2,2 1,5 2,4 3,5 -0,7 89 0,5 365 0,3 3,2 --- 0,9
06.01.2020 1,9 2,6 2,2 3,1 7,4 -0,9 86 0,0 436 0,5 3,8 --- 0,9
05.01.2020 1,7 2,1 0,9 1,7 3,8 -1,5 92 1,0 236 0,2 4,5 --- ---
04.01.2020 1,7 2,2 2,7 3,9 5,5 1,3 85 4,8 91 2,1 11,1 --- ---
03.01.2020 1,0 1,3 4,4 5,3 8,2 2,0 89 2,0 39 1,5 10,2 --- ---
02.01.2020 1,1 0,7 -3,3 -2,6 2,2 -6,9 93 0,1 320 0,7 3,3 --- ---
01.01.2020 1,5 1,4 -2,7 -1,6 5,1 -4,9 90 0,0 585 0,3 2,1 --- 1,7

Mittelwerte (Temperaturen, Strahlung, rel. Feuchte, Wind), Summe (Regen) für 2020
3,0 3,8 4,4 5,0 73 169 1.073 1,7

Landesbetrieb Landwirtschaft Hessen 2009

      Werte bis 5 Uhr SommerzeitCSV-Datei: Niedergude20.csvDiagramm: Niedergude